createdAt,value
2022-08-10T00:01:43.166Z,5.67
2022-08-10T00:04:05.917Z,5.90
2022-08-10T00:06:28.395Z,5.40
2022-08-10T00:08:50.468Z,6.13
2022-08-10T00:11:16.715Z,6.03
2022-08-10T00:13:39.103Z,6.40
2022-08-10T00:16:02.494Z,5.77
2022-08-10T00:18:31.402Z,6.50
2022-08-10T00:20:58.093Z,6.67
2022-08-10T00:23:21.086Z,6.50
2022-08-10T00:25:43.359Z,6.60
2022-08-10T00:28:05.853Z,6.87
2022-08-10T00:30:27.760Z,6.87
2022-08-10T00:32:50.966Z,6.77
2022-08-10T00:35:12.878Z,6.00
2022-08-10T00:37:34.927Z,7.23
2022-08-10T00:39:56.997Z,7.43
2022-08-10T00:42:19.267Z,6.53
2022-08-10T00:44:43.118Z,7.00
2022-08-10T00:47:05.823Z,7.80
2022-08-10T00:49:29.538Z,7.73
2022-08-10T00:51:51.729Z,7.77
2022-08-10T00:54:24.026Z,7.43
2022-08-10T00:57:16.326Z,8.00
2022-08-10T00:59:29.866Z,7.43
2022-08-10T01:02:09.233Z,8.43
2022-08-10T01:04:40.053Z,7.80
2022-08-10T01:07:27.115Z,7.97
2022-08-10T01:09:59.537Z,8.43
2022-08-10T01:12:40.856Z,8.10
2022-08-10T01:15:21.876Z,8.00
2022-08-10T01:17:55.109Z,8.40
2022-08-10T01:20:30.760Z,8.60
2022-08-10T01:23:14.627Z,8.23
2022-08-10T01:26:10.459Z,8.20
2022-08-10T01:28:38.793Z,8.37
2022-08-10T01:31:03.919Z,8.87
2022-08-10T01:33:31.857Z,7.93
2022-08-10T01:36:15.504Z,8.30
2022-08-10T01:38:41.924Z,8.47
2022-08-10T01:41:07.846Z,8.50
2022-08-10T01:43:32.585Z,9.27
2022-08-10T01:45:57.928Z,8.40
2022-08-10T01:48:31.892Z,8.87
2022-08-10T01:51:00.555Z,8.20
2022-08-10T01:53:26.003Z,8.10
2022-08-10T01:55:49.950Z,9.17
2022-08-10T01:58:14.476Z,8.73
2022-08-10T02:00:40.773Z,9.17
2022-08-10T02:03:05.346Z,8.90
2022-08-10T02:05:30.127Z,9.60
2022-08-10T02:07:53.346Z,9.53
2022-08-10T02:10:19.155Z,10.70
2022-08-10T02:12:43.537Z,9.97
2022-08-10T02:15:11.244Z,9.23
2022-08-10T02:17:59.125Z,10.03
2022-08-10T02:20:21.286Z,10.27
2022-08-10T02:22:46.353Z,11.57
2022-08-10T02:25:39.581Z,10.30
2022-08-10T02:27:54.683Z,10.47
2022-08-10T02:30:17.440Z,10.73
2022-08-10T02:32:41.822Z,10.40
2022-08-10T02:35:22.319Z,10.40
2022-08-10T02:37:49.839Z,9.40
2022-08-10T02:45:02.554Z,10.10
2022-08-10T02:45:23.390Z,10.63
2022-08-10T02:45:49.149Z,9.27
2022-08-10T02:48:17.114Z,9.20
2022-08-10T02:50:42.599Z,10.30
2022-08-10T02:53:54.743Z,9.90
2022-08-10T02:56:01.500Z,9.97
2022-08-10T02:58:29.333Z,10.27
2022-08-10T03:00:55.857Z,9.33
2022-08-10T03:03:22.195Z,9.47
2022-08-10T03:05:45.305Z,9.87
2022-08-10T03:08:11.245Z,9.33
2022-08-10T03:10:39.835Z,9.60
2022-08-10T03:13:04.906Z,9.37
2022-08-10T03:15:28.482Z,8.90
2022-08-10T03:17:57.880Z,10.07
2022-08-10T03:20:37.447Z,9.60
2022-08-10T03:23:02.418Z,9.53
2022-08-10T03:25:28.032Z,8.23
2022-08-10T03:27:51.227Z,9.40
2022-08-10T03:30:28.295Z,9.10
2022-08-10T03:32:57.534Z,8.60
2022-08-10T03:35:19.945Z,8.63
2022-08-10T03:37:42.199Z,9.03
2022-08-10T03:40:05.108Z,8.87
2022-08-10T03:42:29.830Z,8.23
2022-08-10T03:44:54.194Z,8.47
2022-08-10T03:47:18.455Z,7.77
2022-08-10T03:49:41.295Z,8.20
2022-08-10T03:52:06.273Z,8.63
2022-08-10T03:54:28.794Z,8.37
2022-08-10T03:56:51.390Z,8.63
2022-08-10T03:59:18.636Z,7.93
2022-08-10T04:02:44.073Z,9.07
2022-08-10T04:04:25.679Z,7.33
2022-08-10T04:06:51.497Z,8.87
2022-08-10T04:09:17.435Z,8.40
2022-08-10T04:11:40.767Z,8.87
2022-08-10T04:14:02.784Z,9.47
2022-08-10T04:16:26.051Z,10.33
2022-08-10T04:18:47.859Z,9.90
2022-08-10T04:21:13.155Z,10.70
2022-08-10T04:23:39.180Z,9.90
2022-08-10T04:26:01.802Z,10.40
2022-08-10T04:28:25.124Z,10.73
2022-08-10T04:30:50.675Z,10.40
2022-08-10T04:33:16.886Z,11.03
2022-08-10T04:35:39.901Z,11.00
2022-08-10T04:38:03.997Z,11.20
2022-08-10T04:40:30.517Z,12.20
2022-08-10T04:42:53.249Z,12.03
2022-08-10T04:45:23.402Z,12.30
2022-08-10T04:48:06.021Z,11.50
2022-08-10T04:50:49.144Z,12.40
2022-08-10T04:53:11.207Z,11.60
2022-08-10T04:55:33.079Z,12.37
2022-08-10T04:57:55.102Z,11.53
2022-08-10T05:00:19.165Z,11.77
2022-08-10T05:02:41.806Z,10.90
2022-08-10T05:05:04.315Z,11.17
2022-08-10T05:07:27.627Z,10.53
2022-08-10T05:10:01.015Z,10.67
2022-08-10T05:12:27.820Z,9.90
2022-08-10T05:14:52.247Z,10.70
2022-08-10T05:17:16.777Z,10.00
2022-08-10T05:20:03.371Z,9.23
2022-08-10T05:22:20.793Z,9.33
2022-08-10T05:24:43.859Z,9.03
2022-08-10T05:27:09.897Z,9.00
2022-08-10T05:29:32.338Z,8.27
2022-08-10T05:31:55.045Z,8.33
2022-08-10T05:34:20.881Z,8.40
2022-08-10T05:36:43.319Z,7.60
2022-08-10T05:39:05.831Z,7.57
2022-08-10T05:41:29.988Z,7.13
2022-08-10T05:43:52.034Z,7.53
2022-08-10T05:46:18.132Z,6.07
2022-08-10T05:48:56.810Z,5.73
2022-08-10T05:51:23.055Z,5.13
2022-08-10T05:54:01.893Z,5.40
2022-08-10T05:56:26.958Z,4.33
2022-08-10T05:59:10.801Z,4.13
2022-08-10T06:01:35.324Z,4.17
2022-08-10T06:03:59.484Z,3.43
2022-08-10T06:06:24.915Z,3.50
2022-08-10T06:08:48.733Z,2.53
2022-08-10T06:12:25.694Z,3.13
2022-08-10T06:14:16.616Z,2.23
2022-08-10T06:16:43.540Z,2.87
2022-08-10T06:19:05.818Z,2.50
2022-08-10T06:21:28.839Z,2.13
2022-08-10T06:23:52.921Z,1.93
2022-08-10T06:26:18.454Z,1.97
2022-08-10T06:29:02.295Z,1.73
2022-08-10T06:31:30.714Z,2.20
2022-08-10T06:34:11.829Z,1.50
2022-08-10T06:36:34.911Z,1.63
2022-08-10T06:39:16.677Z,1.67
2022-08-10T06:42:15.366Z,1.93
2022-08-10T06:44:33.395Z,1.70
2022-08-10T06:46:58.766Z,1.33
2022-08-10T06:49:24.268Z,1.20
2022-08-10T06:51:57.604Z,1.40
2022-08-10T06:54:24.553Z,1.20
2022-08-10T06:57:08.328Z,1.40
2022-08-10T06:59:37.099Z,1.30
2022-08-10T07:02:03.187Z,1.43
2022-08-10T07:04:32.983Z,1.53
2022-08-10T07:06:58.337Z,1.20
2022-08-10T07:09:21.743Z,1.20
2022-08-10T07:11:45.899Z,1.10
2022-08-10T07:14:14.537Z,1.00
2022-08-10T07:16:42.589Z,1.90
2022-08-10T07:19:05.196Z,1.10
2022-08-10T07:21:30.004Z,1.50
2022-08-10T07:23:57.558Z,1.20
2022-08-10T07:26:23.976Z,1.10
2022-08-10T07:28:48.204Z,1.10
2022-08-10T07:31:36.089Z,0.90
2022-08-10T07:33:56.146Z,1.20
2022-08-10T07:36:21.182Z,1.07
2022-08-10T07:38:45.048Z,1.30
2022-08-10T07:41:09.021Z,1.17
2022-08-10T07:43:36.304Z,1.20
2022-08-10T07:45:59.969Z,1.17
2022-08-10T07:48:27.257Z,1.07
2022-08-10T07:50:52.647Z,1.53
2022-08-10T07:53:20.993Z,1.03
2022-08-10T07:56:07.332Z,1.60
2022-08-10T07:58:34.930Z,1.60
2022-08-10T08:00:58.282Z,1.30
2022-08-10T08:03:24.814Z,1.60
2022-08-10T08:05:58.267Z,1.30
2022-08-10T08:08:26.188Z,1.80
2022-08-10T08:10:53.739Z,1.20
2022-08-10T08:13:17.692Z,1.10
2022-08-10T08:16:18.596Z,1.60
2022-08-10T08:18:25.239Z,1.80
2022-08-10T08:20:47.989Z,1.50
2022-08-10T08:24:07.660Z,1.80
2022-08-10T08:25:58.770Z,1.57
2022-08-10T08:28:22.608Z,1.50
2022-08-10T08:30:48.924Z,1.50
2022-08-10T08:33:12.656Z,1.47
2022-08-10T08:35:55.275Z,1.50
2022-08-10T08:38:29.546Z,1.10
2022-08-10T08:41:03.869Z,1.20
2022-08-10T08:43:44.891Z,1.63
2022-08-10T08:46:28.398Z,1.17
2022-08-10T08:49:08.680Z,1.40
2022-08-10T08:52:07.118Z,1.40
2022-08-10T08:54:37.278Z,1.73
2022-08-10T08:57:06.977Z,1.50
2022-08-10T08:59:43.098Z,1.03
2022-08-10T09:02:24.689Z,1.20
2022-08-10T09:05:05.352Z,1.10
2022-08-10T09:08:02.071Z,1.27
2022-08-10T09:10:38.077Z,1.20
2022-08-10T09:13:08.104Z,1.10
2022-08-10T09:15:40.761Z,1.40
2022-08-10T09:18:09.753Z,1.00
2022-08-10T09:20:38.182Z,1.00
2022-08-10T09:23:06.317Z,1.37
2022-08-10T09:25:35.832Z,1.23
2022-08-10T09:28:04.610Z,1.10
2022-08-10T09:30:35.765Z,1.10
2022-08-10T09:36:29.225Z,1.10
2022-08-10T09:36:29.788Z,1.10
2022-08-10T09:38:46.956Z,1.17
2022-08-10T09:41:20.897Z,1.00
2022-08-10T09:43:51.138Z,0.80
2022-08-10T09:46:23.593Z,0.90
2022-08-10T09:48:55.431Z,0.93
2022-08-10T09:51:47.041Z,0.90
2022-08-10T09:54:21.769Z,1.00
2022-08-10T09:56:53.387Z,0.80
2022-08-10T09:59:59.495Z,1.20
2022-08-10T10:02:19.950Z,0.93
2022-08-10T10:04:48.415Z,0.90
2022-08-10T10:07:15.084Z,1.40
2022-08-10T10:09:44.379Z,0.83
2022-08-10T10:12:22.165Z,0.90
2022-08-10T10:15:24.722Z,0.70
2022-08-10T10:18:07.244Z,0.80
2022-08-10T10:20:36.350Z,1.30
2022-08-10T10:23:08.591Z,0.80
2022-08-10T10:25:49.982Z,0.67
2022-08-10T10:29:07.318Z,1.00
2022-08-10T10:31:27.742Z,0.60
2022-08-10T10:33:58.830Z,0.60
2022-08-10T10:36:22.264Z,0.70
2022-08-10T10:38:46.517Z,0.67
2022-08-10T10:41:20.330Z,0.70
2022-08-10T10:43:54.768Z,0.80
2022-08-10T10:46:33.660Z,0.70
2022-08-10T10:49:04.465Z,0.70
2022-08-10T10:51:29.446Z,0.60
2022-08-10T10:54:08.196Z,0.80
2022-08-10T10:56:39.682Z,1.00
2022-08-10T10:59:54.018Z,0.60
2022-08-10T11:02:05.394Z,0.70
2022-08-10T11:04:36.160Z,0.70
2022-08-10T11:07:03.923Z,0.70
2022-08-10T11:10:08.635Z,0.70
2022-08-10T11:12:27.500Z,0.60
2022-08-10T11:14:55.206Z,0.73
2022-08-10T11:17:26.943Z,0.60
2022-08-10T11:20:01.685Z,0.90
2022-08-10T11:22:36.667Z,0.60
2022-08-10T11:25:04.987Z,0.60
2022-08-10T11:27:40.078Z,0.60
2022-08-10T11:30:06.371Z,0.63
2022-08-10T11:32:37.997Z,0.50
2022-08-10T11:35:11.688Z,0.40
2022-08-10T11:38:34.717Z,0.73
2022-08-10T11:40:25.532Z,0.60
2022-08-10T11:42:53.922Z,0.43
2022-08-10T11:45:20.918Z,0.67
2022-08-10T11:47:49.112Z,0.70
2022-08-10T11:50:24.805Z,0.50
2022-08-10T11:52:54.484Z,0.50
2022-08-10T11:55:20.281Z,0.80
2022-08-10T11:57:53.243Z,0.60
2022-08-10T12:00:17.404Z,0.60
2022-08-10T12:02:43.461Z,0.50
2022-08-10T12:05:11.699Z,0.60
2022-08-10T12:10:02.350Z,0.60
2022-08-10T12:10:18.028Z,0.63
2022-08-10T12:12:46.439Z,0.50
2022-08-10T12:15:16.788Z,0.60
2022-08-10T12:17:43.923Z,0.50
2022-08-10T12:20:11.569Z,0.50
2022-08-10T12:22:39.444Z,0.50
2022-08-10T12:25:06.903Z,0.50
2022-08-10T12:27:37.108Z,0.50
2022-08-10T12:30:05.307Z,0.50
2022-08-10T12:32:33.221Z,0.60
2022-08-10T12:35:02.385Z,0.50
2022-08-10T12:37:32.347Z,0.50
2022-08-10T12:40:33.370Z,0.60
2022-08-10T12:43:13.416Z,0.67
2022-08-10T12:45:39.050Z,0.67
2022-08-10T12:48:12.402Z,0.40
2022-08-10T12:50:42.806Z,0.53
2022-08-10T12:53:18.450Z,0.50
2022-08-10T12:55:42.111Z,0.50
2022-08-10T12:58:06.687Z,0.50
2022-08-10T13:01:14.698Z,0.60
2022-08-10T13:04:21.365Z,0.60
2022-08-10T13:06:16.328Z,0.50
2022-08-10T13:08:59.417Z,0.70
2022-08-10T13:12:35.974Z,0.60
2022-08-10T13:14:14.566Z,0.50
2022-08-10T13:16:37.865Z,0.60
2022-08-10T13:19:02.630Z,0.63
2022-08-10T13:21:30.573Z,0.60
2022-08-10T13:27:25.833Z,0.50
2022-08-10T13:29:36.275Z,0.50
2022-08-10T13:32:04.021Z,0.60
2022-08-10T13:34:42.838Z,0.50
2022-08-10T13:37:11.100Z,0.60
2022-08-10T13:40:00.276Z,0.50
2022-08-10T13:42:31.985Z,0.60
2022-08-10T13:44:57.456Z,0.40
2022-08-10T13:47:28.299Z,0.47
2022-08-10T13:50:03.527Z,0.60
2022-08-10T13:52:29.026Z,0.50
2022-08-10T13:54:53.819Z,0.57
2022-08-10T13:57:21.559Z,0.50
2022-08-10T14:00:36.733Z,0.50
2022-08-10T14:02:39.657Z,0.60
2022-08-10T14:05:03.968Z,0.57
2022-08-10T14:07:28.410Z,0.40
2022-08-10T14:09:53.204Z,0.60
2022-08-10T14:12:16.037Z,0.50
2022-08-10T14:14:39.813Z,0.50
2022-08-10T14:17:02.694Z,0.60
2022-08-10T14:19:27.712Z,0.50
2022-08-10T14:21:50.675Z,0.50
2022-08-10T14:24:22.762Z,0.50
2022-08-10T14:26:48.075Z,0.60
2022-08-10T14:29:19.643Z,0.47
2022-08-10T14:32:01.610Z,0.77
2022-08-10T14:36:15.599Z,0.47
2022-08-10T14:37:17.130Z,0.50
2022-08-10T14:39:45.473Z,0.63
2022-08-10T14:42:24.108Z,0.60
2022-08-10T14:44:54.176Z,0.60
2022-08-10T14:47:52.338Z,0.40
2022-08-10T14:50:05.817Z,0.60
2022-08-10T14:52:30.574Z,0.50
2022-08-10T14:54:54.917Z,0.60
2022-08-10T14:57:19.910Z,0.60
2022-08-10T15:00:22.866Z,0.50
2022-08-10T15:02:38.152Z,0.60
2022-08-10T15:05:01.771Z,0.40
2022-08-10T15:07:29.604Z,0.50
2022-08-10T15:10:01.135Z,0.60
2022-08-10T15:12:31.535Z,0.50
2022-08-10T15:14:56.116Z,0.50
2022-08-10T15:17:26.494Z,0.50
2022-08-10T15:20:02.280Z,0.50
2022-08-10T15:22:37.580Z,0.53
2022-08-10T15:25:06.807Z,0.57
2022-08-10T15:27:54.936Z,0.60
2022-08-10T15:30:17.722Z,0.50
2022-08-10T15:33:01.094Z,0.60
2022-08-10T15:35:44.103Z,0.50
2022-08-10T15:38:08.720Z,0.50
2022-08-10T15:40:39.103Z,0.40
2022-08-10T15:43:44.378Z,0.60
2022-08-10T15:46:14.998Z,0.60
2022-08-10T15:48:43.602Z,0.57
2022-08-10T15:51:28.517Z,0.60
2022-08-10T15:54:03.214Z,0.70
2022-08-10T15:56:31.091Z,0.60
2022-08-10T15:59:08.003Z,0.70
2022-08-10T16:02:15.062Z,1.07
2022-08-10T16:04:32.249Z,0.80
2022-08-10T16:06:59.879Z,0.83
2022-08-10T16:10:26.616Z,0.80
2022-08-10T16:12:15.688Z,0.50
2022-08-10T16:14:40.982Z,0.67
2022-08-10T16:17:04.222Z,0.80
2022-08-10T16:19:28.336Z,0.70
2022-08-10T16:21:56.758Z,0.70
2022-08-10T16:24:20.384Z,0.80
2022-08-10T16:26:47.244Z,0.70
2022-08-10T16:29:12.540Z,0.70
2022-08-10T16:31:38.241Z,0.70
2022-08-10T16:34:04.185Z,0.70
2022-08-10T16:36:32.842Z,0.80
2022-08-10T16:56:09.641Z,0.87
2022-08-10T16:58:34.817Z,0.80
2022-08-10T17:01:02.514Z,0.90
2022-08-10T17:04:08.548Z,0.80
2022-08-10T17:06:14.350Z,0.90
2022-08-10T17:08:40.521Z,0.80
2022-08-10T17:11:14.138Z,0.80
2022-08-10T17:13:37.757Z,0.80
2022-08-10T17:16:03.665Z,0.90
2022-08-10T17:18:30.367Z,1.07
2022-08-10T17:20:52.731Z,0.90
2022-08-10T17:23:15.871Z,0.97
2022-08-10T17:25:48.709Z,0.80
2022-08-10T17:28:33.268Z,0.90
2022-08-10T17:31:04.564Z,0.90
2022-08-10T17:33:46.649Z,0.80
2022-08-10T17:36:09.789Z,0.90
2022-08-10T17:38:34.285Z,1.00
2022-08-10T17:41:03.510Z,1.20
2022-08-10T17:43:46.228Z,0.90
2022-08-10T17:46:14.230Z,0.83
2022-08-10T17:48:38.931Z,0.80
2022-08-10T17:51:02.683Z,1.00
2022-08-10T17:53:28.851Z,1.30
2022-08-10T17:55:56.395Z,1.00
2022-08-10T17:58:21.324Z,1.30
2022-08-10T18:00:48.993Z,0.80
2022-08-10T18:03:25.077Z,1.00
2022-08-10T18:05:52.589Z,0.80
2022-08-10T18:08:22.720Z,1.40
2022-08-10T18:10:51.487Z,0.70
2022-08-10T18:13:18.533Z,0.83
2022-08-10T18:15:45.814Z,1.07
2022-08-10T18:18:16.019Z,0.97
2022-08-10T18:20:39.081Z,0.90
2022-08-10T18:23:02.290Z,0.90
2022-08-10T18:25:28.984Z,0.90
2022-08-10T18:28:03.795Z,0.60
2022-08-10T18:30:29.675Z,0.73
2022-08-10T18:33:00.125Z,0.60
2022-08-10T18:35:34.570Z,0.73
2022-08-10T18:38:02.236Z,0.90
2022-08-10T18:40:36.180Z,0.80
2022-08-10T18:43:00.088Z,1.07
2022-08-10T18:45:27.062Z,1.00
2022-08-10T18:47:59.122Z,0.87
2022-08-10T18:50:28.372Z,1.00
2022-08-10T18:52:56.981Z,0.93
2022-08-10T18:55:24.879Z,1.00
2022-08-10T18:58:11.226Z,1.27
2022-08-10T19:00:37.465Z,0.80
2022-08-10T19:03:12.733Z,0.80
2022-08-10T19:05:57.441Z,1.20
2022-08-10T19:08:55.884Z,1.20
2022-08-10T19:11:28.542Z,0.90
2022-08-10T19:13:59.664Z,1.07
2022-08-10T19:16:35.814Z,1.03
2022-08-10T19:19:22.851Z,1.10
2022-08-10T19:21:54.731Z,1.10
2022-08-10T19:24:25.855Z,1.20
2022-08-10T19:26:55.389Z,1.00
2022-08-10T19:30:10.638Z,1.20
2022-08-10T19:32:24.716Z,1.27
2022-08-10T19:34:59.218Z,1.10
2022-08-10T19:37:33.511Z,1.20
2022-08-10T19:40:11.907Z,1.23
2022-08-10T19:42:40.425Z,1.40
2022-08-10T19:45:11.723Z,1.20
2022-08-10T19:47:59.181Z,1.17
2022-08-10T19:50:27.264Z,1.20
2022-08-10T19:52:59.627Z,1.40
2022-08-10T19:55:27.971Z,1.30
2022-08-10T19:57:55.372Z,1.20
2022-08-10T20:00:22.918Z,1.30
2022-08-10T20:03:04.090Z,1.23
2022-08-10T20:05:35.182Z,1.53
2022-08-10T20:08:03.541Z,1.20
2022-08-10T20:10:35.218Z,1.20
2022-08-10T20:13:13.422Z,1.30
2022-08-10T20:15:42.078Z,1.20
2022-08-10T20:18:14.027Z,1.50
2022-08-10T20:20:38.416Z,1.30
2022-08-10T20:23:11.287Z,1.23
2022-08-10T20:25:33.846Z,1.30
2022-08-10T20:28:03.245Z,1.40
2022-08-10T20:30:30.445Z,1.20
2022-08-10T20:32:57.668Z,1.30
2022-08-10T20:35:25.713Z,1.50
2022-08-10T20:38:03.518Z,1.20
2022-08-10T20:40:34.293Z,1.50
2022-08-10T20:43:07.956Z,1.60
2022-08-10T20:46:07.436Z,1.40
2022-08-10T20:48:37.182Z,1.67
2022-08-10T20:51:04.076Z,1.80
2022-08-10T20:53:28.957Z,1.80
2022-08-10T20:55:59.421Z,1.80
2022-08-10T20:58:53.481Z,1.53
2022-08-10T21:01:19.603Z,1.40
2022-08-10T21:03:59.056Z,2.00
2022-08-10T21:06:42.966Z,1.63
2022-08-10T21:09:21.346Z,1.87
2022-08-10T21:11:56.953Z,1.80
2022-08-10T21:14:33.827Z,1.70
2022-08-10T21:17:11.974Z,1.60
2022-08-10T21:19:53.811Z,2.10
2022-08-10T21:22:39.165Z,1.63
2022-08-10T21:25:04.633Z,1.50
2022-08-10T21:27:48.573Z,1.90
2022-08-10T21:30:12.616Z,3.40
2022-08-10T21:32:44.190Z,2.00
2022-08-10T21:35:37.200Z,1.87
2022-08-10T21:38:05.685Z,1.60
2022-08-10T21:40:43.677Z,1.90
2022-08-10T21:43:59.199Z,2.23
2022-08-10T21:46:55.224Z,1.77
2022-08-10T21:49:49.728Z,1.87
2022-08-10T21:52:39.186Z,1.90
2022-08-10T21:55:57.427Z,2.20
2022-08-10T21:58:35.133Z,2.17
2022-08-10T22:01:26.133Z,2.20
2022-08-10T22:04:19.884Z,1.67
2022-08-10T22:07:03.114Z,2.17
2022-08-10T22:09:47.744Z,2.03
2022-08-10T22:12:32.393Z,1.90
2022-08-10T22:15:11.930Z,2.10
2022-08-10T22:18:03.388Z,2.47
2022-08-10T22:24:18.955Z,2.17
2022-08-10T22:27:56.636Z,2.30
2022-08-10T22:30:17.089Z,2.10
2022-08-10T22:31:26.983Z,2.30
2022-08-10T22:33:20.872Z,2.73
2022-08-10T22:36:34.949Z,2.47
2022-08-10T22:40:11.314Z,2.43
2022-08-10T22:42:57.940Z,2.83
2022-08-10T22:45:36.615Z,2.70
2022-08-10T22:48:19.862Z,2.67
2022-08-10T22:50:44.221Z,3.40
2022-08-10T22:53:09.554Z,2.90
2022-08-10T22:55:52.757Z,3.07
2022-08-10T22:58:33.916Z,3.03
2022-08-10T23:01:02.893Z,2.97
2022-08-10T23:03:28.619Z,3.23
2022-08-10T23:05:55.863Z,3.20
2022-08-10T23:08:29.690Z,3.10
2022-08-10T23:10:54.336Z,3.50
2022-08-10T23:13:35.678Z,2.93
2022-08-10T23:16:18.417Z,3.73
2022-08-10T23:19:05.792Z,3.67
2022-08-10T23:21:47.704Z,4.27
2022-08-10T23:24:17.886Z,3.73
2022-08-10T23:26:43.942Z,3.80
2022-08-10T23:29:12.638Z,4.13
2022-08-10T23:31:59.133Z,4.20
2022-08-10T23:34:23.759Z,3.23
2022-08-10T23:36:45.894Z,4.27
2022-08-10T23:39:26.625Z,3.97
2022-08-10T23:41:54.309Z,3.93
2022-08-10T23:44:20.841Z,4.00
2022-08-10T23:46:44.686Z,4.90
2022-08-10T23:49:07.960Z,4.70
2022-08-10T23:51:54.538Z,4.30
2022-08-10T23:54:18.493Z,4.20
2022-08-10T23:56:44.712Z,4.83
2022-08-10T23:59:12.223Z,3.80
